sensor_id;sensor_type;location;lat;lon;timestamp;pressure;altitude;pressure_sealevel;temperature;humidity
34566;BME280;20803;42.676;26.348;2022-08-19T00:00:14;98203.06;;;25.82;73.75
34566;BME280;20803;42.676;26.348;2022-08-19T00:02:40;98198.41;;;25.84;74.08
34566;BME280;20803;42.676;26.348;2022-08-19T00:05:07;98197.31;;;25.88;72.40
34566;BME280;20803;42.676;26.348;2022-08-19T00:07:33;98201.72;;;25.89;72.19
34566;BME280;20803;42.676;26.348;2022-08-19T00:09:59;98198.34;;;25.90;71.33
34566;BME280;20803;42.676;26.348;2022-08-19T00:12:24;98202.50;;;25.89;71.81
34566;BME280;20803;42.676;26.348;2022-08-19T00:14:50;98198.78;;;25.64;71.95
34566;BME280;20803;42.676;26.348;2022-08-19T00:17:15;98207.97;;;25.40;73.19
34566;BME280;20803;42.676;26.348;2022-08-19T00:19:41;98213.69;;;25.35;74.38
34566;BME280;20803;42.676;26.348;2022-08-19T00:22:06;98213.66;;;25.40;73.01
34566;BME280;20803;42.676;26.348;2022-08-19T00:24:34;98211.31;;;25.44;72.66
34566;BME280;20803;42.676;26.348;2022-08-19T00:27:00;98196.03;;;25.48;72.83
34566;BME280;20803;42.676;26.348;2022-08-19T00:29:27;98213.69;;;25.35;73.16
34566;BME280;20803;42.676;26.348;2022-08-19T00:31:53;98201.31;;;25.27;73.85
34566;BME280;20803;42.676;26.348;2022-08-19T00:34:22;98198.06;;;25.12;75.54
34566;BME280;20803;42.676;26.348;2022-08-19T00:36:48;98203.00;;;25.05;75.42
34566;BME280;20803;42.676;26.348;2022-08-19T00:39:14;98202.69;;;25.15;75.77
34566;BME280;20803;42.676;26.348;2022-08-19T00:41:41;98202.97;;;25.11;76.31
34566;BME280;20803;42.676;26.348;2022-08-19T00:44:12;98200.56;;;25.21;75.21
34566;BME280;20803;42.676;26.348;2022-08-19T00:46:40;98196.69;;;25.24;75.02
34566;BME280;20803;42.676;26.348;2022-08-19T00:49:18;98207.75;;;25.33;74.89
34566;BME280;20803;42.676;26.348;2022-08-19T00:51:50;98188.84;;;25.41;73.71
34566;BME280;20803;42.676;26.348;2022-08-19T00:54:16;98186.72;;;25.47;73.05
34566;BME280;20803;42.676;26.348;2022-08-19T00:56:43;98188.81;;;25.46;71.74
34566;BME280;20803;42.676;26.348;2022-08-19T00:59:10;98196.81;;;25.48;71.54
34566;BME280;20803;42.676;26.348;2022-08-19T01:01:41;98195.47;;;25.55;70.99
34566;BME280;20803;42.676;26.348;2022-08-19T01:04:07;98190.56;;;25.50;72.06
34566;BME280;20803;42.676;26.348;2022-08-19T01:06:35;98188.31;;;25.42;72.10
34566;BME280;20803;42.676;26.348;2022-08-19T01:09:01;98203.56;;;25.39;72.06
34566;BME280;20803;42.676;26.348;2022-08-19T01:11:27;98198.75;;;25.23;73.06
34566;BME280;20803;42.676;26.348;2022-08-19T01:13:54;98204.69;;;25.25;73.41
34566;BME280;20803;42.676;26.348;2022-08-19T01:16:23;98196.41;;;25.27;73.24
34566;BME280;20803;42.676;26.348;2022-08-19T01:18:49;98205.50;;;25.20;73.31
34566;BME280;20803;42.676;26.348;2022-08-19T01:23:49;98199.06;;;25.14;80.24
34566;BME280;20803;42.676;26.348;2022-08-19T01:26:18;98195.50;;;25.02;85.72
34566;BME280;20803;42.676;26.348;2022-08-19T01:28:45;98198.66;;;24.82;88.81
34566;BME280;20803;42.676;26.348;2022-08-19T01:31:16;98205.44;;;24.62;90.25
34566;BME280;20803;42.676;26.348;2022-08-19T01:33:42;98208.31;;;24.51;91.27
34566;BME280;20803;42.676;26.348;2022-08-19T01:36:11;98197.19;;;24.48;91.33
34566;BME280;20803;42.676;26.348;2022-08-19T01:38:40;98207.28;;;24.49;91.97
34566;BME280;20803;42.676;26.348;2022-08-19T01:41:06;98205.19;;;24.49;92.10
34566;BME280;20803;42.676;26.348;2022-08-19T01:43:33;98210.38;;;24.51;91.76
34566;BME280;20803;42.676;26.348;2022-08-19T01:45:59;98211.13;;;24.57;91.46
34566;BME280;20803;42.676;26.348;2022-08-19T01:48:24;98204.69;;;24.56;91.78
34566;BME280;20803;42.676;26.348;2022-08-19T01:50:50;98201.03;;;24.61;92.46
34566;BME280;20803;42.676;26.348;2022-08-19T01:53:15;98192.50;;;24.61;93.24
34566;BME280;20803;42.676;26.348;2022-08-19T01:55:42;98193.56;;;24.64;93.34
34566;BME280;20803;42.676;26.348;2022-08-19T01:58:21;98189.41;;;24.65;94.43
34566;BME280;20803;42.676;26.348;2022-08-19T02:00:48;98186.56;;;24.65;91.84
34566;BME280;20803;42.676;26.348;2022-08-19T02:03:14;98183.78;;;24.43;92.67
34566;BME280;20803;42.676;26.348;2022-08-19T02:05:41;98189.16;;;24.52;92.41
34566;BME280;20803;42.676;26.348;2022-08-19T02:08:07;98193.31;;;24.56;91.20
34566;BME280;20803;42.676;26.348;2022-08-19T02:10:33;98194.88;;;24.57;92.61
34566;BME280;20803;42.676;26.348;2022-08-19T02:13:03;98194.88;;;24.57;91.92
34566;BME280;20803;42.676;26.348;2022-08-19T02:15:28;98186.31;;;24.52;91.57
34566;BME280;20803;42.676;26.348;2022-08-19T02:17:54;98186.56;;;24.59;92.35
34566;BME280;20803;42.676;26.348;2022-08-19T02:20:19;98193.81;;;24.60;91.80
34566;BME280;20803;42.676;26.348;2022-08-19T02:22:45;98194.09;;;24.57;91.59
34566;BME280;20803;42.676;26.348;2022-08-19T02:25:12;98190.16;;;24.65;90.37
34566;BME280;20803;42.676;26.348;2022-08-19T02:27:38;98196.63;;;24.72;88.70
34566;BME280;20803;42.676;26.348;2022-08-19T02:30:12;98201.00;;;24.73;86.31
34566;BME280;20803;42.676;26.348;2022-08-19T02:32:38;98208.75;;;24.72;86.36
34566;BME280;20803;42.676;26.348;2022-08-19T02:35:04;98201.00;;;24.73;84.62
34566;BME280;20803;42.676;26.348;2022-08-19T02:37:30;98203.63;;;24.59;83.30
34566;BME280;20803;42.676;26.348;2022-08-19T02:40:14;98199.25;;;24.53;84.04
34566;BME280;20803;42.676;26.348;2022-08-19T02:42:40;98203.38;;;24.52;83.52
34566;BME280;20803;42.676;26.348;2022-08-19T02:45:06;98206.22;;;24.57;84.36
34566;BME280;20803;42.676;26.348;2022-08-19T02:47:33;98208.03;;;24.49;83.89
34566;BME280;20803;42.676;26.348;2022-08-19T02:50:01;98214.75;;;24.52;82.42
34566;BME280;20803;42.676;26.348;2022-08-19T02:52:27;98216.06;;;24.51;80.65
34566;BME280;20803;42.676;26.348;2022-08-19T02:54:53;98224.34;;;24.38;83.71
34566;BME280;20803;42.676;26.348;2022-08-19T02:57:18;98217.09;;;24.42;85.45
34566;BME280;20803;42.676;26.348;2022-08-19T02:59:44;98225.63;;;24.42;85.67
34566;BME280;20803;42.676;26.348;2022-08-19T03:02:09;98230.53;;;24.31;86.94
34566;BME280;20803;42.676;26.348;2022-08-19T03:04:35;98232.88;;;24.27;87.36
34566;BME280;20803;42.676;26.348;2022-08-19T03:07:00;98241.34;;;24.15;91.97
34566;BME280;20803;42.676;26.348;2022-08-19T03:09:25;98246.00;;;24.02;93.83
34566;BME280;20803;42.676;26.348;2022-08-19T03:11:51;98242.63;;;23.92;95.32
34566;BME280;20803;42.676;26.348;2022-08-19T03:14:16;98242.91;;;23.89;93.66
34566;BME280;20803;42.676;26.348;2022-08-19T03:16:46;98241.84;;;23.86;95.44
34566;BME280;20803;42.676;26.348;2022-08-19T03:19:13;98242.13;;;23.82;96.61
34566;BME280;20803;42.676;26.348;2022-08-19T03:21:39;98244.97;;;23.82;98.00
34566;BME280;20803;42.676;26.348;2022-08-19T03:24:08;98258.88;;;23.80;98.43
34566;BME280;20803;42.676;26.348;2022-08-19T03:26:34;98248.28;;;23.75;98.38
34566;BME280;20803;42.676;26.348;2022-08-19T03:29:04;98248.31;;;23.81;97.81
34566;BME280;20803;42.676;26.348;2022-08-19T03:31:30;98248.56;;;23.77;98.83
34566;BME280;20803;42.676;26.348;2022-08-19T03:33:56;98242.34;;;23.79;97.99
34566;BME280;20803;42.676;26.348;2022-08-19T03:36:24;98252.69;;;23.88;97.77
34566;BME280;20803;42.676;26.348;2022-08-19T03:38:54;98259.16;;;23.94;97.36
34566;BME280;20803;42.676;26.348;2022-08-19T03:41:27;98255.81;;;24.01;97.05
34566;BME280;20803;42.676;26.348;2022-08-19T03:43:57;98255.03;;;24.11;95.62
34566;BME280;20803;42.676;26.348;2022-08-19T03:46:28;98259.97;;;24.22;95.13
34566;BME280;20803;42.676;26.348;2022-08-19T03:48:57;98261.78;;;24.31;93.49
34566;BME280;20803;42.676;26.348;2022-08-19T03:51:31;98261.75;;;24.42;92.37
34566;BME280;20803;42.676;26.348;2022-08-19T03:53:58;98266.91;;;24.54;90.83
34566;BME280;20803;42.676;26.348;2022-08-19T03:56:26;98262.25;;;24.68;91.36
34566;BME280;20803;42.676;26.348;2022-08-19T03:58:53;98263.94;;;25.21;90.45
34566;BME280;20803;42.676;26.348;2022-08-19T04:01:22;98271.44;;;25.76;81.88
34566;BME280;20803;42.676;26.348;2022-08-19T04:03:48;98267.97;;;26.30;77.93
34566;BME280;20803;42.676;26.348;2022-08-19T04:08:41;98272.81;;;26.95;73.98
34566;BME280;20803;42.676;26.348;2022-08-19T04:11:12;98275.34;;;27.23;72.04
34566;BME280;20803;42.676;26.348;2022-08-19T04:13:37;98265.91;;;27.52;69.73
34566;BME280;20803;42.676;26.348;2022-08-19T04:16:04;98275.16;;;27.77;68.17
34566;BME280;20803;42.676;26.348;2022-08-19T04:18:30;98275.38;;;27.98;65.92
34566;BME280;20803;42.676;26.348;2022-08-19T04:20:56;98276.69;;;28.15;65.02
34566;BME280;20803;42.676;26.348;2022-08-19T04:23:22;98265.16;;;28.53;61.96
34566;BME280;20803;42.676;26.348;2022-08-19T04:25:47;98274.81;;;28.82;60.39
34566;BME280;20803;42.676;26.348;2022-08-19T04:28:13;98272.81;;;28.77;55.48
34566;BME280;20803;42.676;26.348;2022-08-19T04:30:41;98282.19;;;29.30;57.78
34566;BME280;20803;42.676;26.348;2022-08-19T04:33:07;98278.59;;;29.76;54.78
34566;BME280;20803;42.676;26.348;2022-08-19T04:35:40;98282.22;;;30.24;50.16
34566;BME280;20803;42.676;26.348;2022-08-19T04:38:07;98289.00;;;30.76;47.35
34566;BME280;20803;42.676;26.348;2022-08-19T04:40:33;98288.38;;;30.70;48.24
34566;BME280;20803;42.676;26.348;2022-08-19T04:43:17;98285.06;;;31.07;46.95
34566;BME280;20803;42.676;26.348;2022-08-19T04:45:44;98279.66;;;31.32;45.98
34566;BME280;20803;42.676;26.348;2022-08-19T04:48:10;98281.16;;;31.25;45.71
34566;BME280;20803;42.676;26.348;2022-08-19T04:50:36;98285.41;;;31.32;45.66
34566;BME280;20803;42.676;26.348;2022-08-19T04:53:01;98279.91;;;31.41;45.52
34566;BME280;20803;42.676;26.348;2022-08-19T04:55:27;98283.81;;;31.52;45.68
34566;BME280;20803;42.676;26.348;2022-08-19T04:57:53;98279.56;;;31.89;45.51
34566;BME280;20803;42.676;26.348;2022-08-19T05:00:19;98288.56;;;31.85;45.48
34566;BME280;20803;42.676;26.348;2022-08-19T05:02:45;98277.22;;;32.31;43.42
34566;BME280;20803;42.676;26.348;2022-08-19T05:05:10;98280.25;;;32.33;43.37
34566;BME280;20803;42.676;26.348;2022-08-19T05:07:35;98280.88;;;32.54;42.85
34566;BME280;20803;42.676;26.348;2022-08-19T05:10:03;98279.91;;;32.51;42.23
34566;BME280;20803;42.676;26.348;2022-08-19T05:12:29;98280.84;;;32.31;41.95
34566;BME280;20803;42.676;26.348;2022-08-19T05:14:56;98279.91;;;32.36;41.98
34566;BME280;20803;42.676;26.348;2022-08-19T05:17:22;98293.91;;;32.55;41.76
34566;BME280;20803;42.676;26.348;2022-08-19T05:19:47;98285.44;;;32.34;40.54
34566;BME280;20803;42.676;26.348;2022-08-19T05:22:31;98284.31;;;32.37;39.65
34566;BME280;20803;42.676;26.348;2022-08-19T05:25:09;98283.91;;;32.41;38.90
34566;BME280;20803;42.676;26.348;2022-08-19T05:27:35;98296.44;;;32.66;38.76
34566;BME280;20803;42.676;26.348;2022-08-19T05:30:01;98290.69;;;32.81;38.57
34566;BME280;20803;42.676;26.348;2022-08-19T05:32:27;98287.22;;;32.90;38.70
34566;BME280;20803;42.676;26.348;2022-08-19T05:34:52;98288.53;;;33.35;38.11
34566;BME280;20803;42.676;26.348;2022-08-19T05:37:18;98291.50;;;34.15;37.58
34566;BME280;20803;42.676;26.348;2022-08-19T05:39:43;98290.78;;;34.39;36.91
34566;BME280;20803;42.676;26.348;2022-08-19T05:42:10;98298.69;;;34.64;36.73
34566;BME280;20803;42.676;26.348;2022-08-19T05:44:39;98291.75;;;34.34;36.38
34566;BME280;20803;42.676;26.348;2022-08-19T05:47:08;98287.91;;;34.39;36.97
34566;BME280;20803;42.676;26.348;2022-08-19T05:49:34;98284.91;;;33.82;37.41
34566;BME280;20803;42.676;26.348;2022-08-19T05:52:05;98281.91;;;33.72;37.64
34566;BME280;20803;42.676;26.348;2022-08-19T05:54:31;98281.69;;;33.63;38.16
34566;BME280;20803;42.676;26.348;2022-08-19T05:56:57;98286.66;;;33.85;38.21
34566;BME280;20803;42.676;26.348;2022-08-19T05:59:22;98290.53;;;34.12;37.19
34566;BME280;20803;42.676;26.348;2022-08-19T06:01:50;98290.94;;;34.09;36.88
34566;BME280;20803;42.676;26.348;2022-08-19T06:04:16;98282.66;;;33.73;37.68
34566;BME280;20803;42.676;26.348;2022-08-19T06:06:44;98281.25;;;33.89;37.22
34566;BME280;20803;42.676;26.348;2022-08-19T06:09:10;98282.75;;;33.35;38.11
34566;BME280;20803;42.676;26.348;2022-08-19T06:11:40;98273.69;;;33.46;38.00
34566;BME280;20803;42.676;26.348;2022-08-19T06:14:09;98277.59;;;33.18;38.92
34566;BME280;20803;42.676;26.348;2022-08-19T06:16:37;98274.59;;;33.64;37.88
34566;BME280;20803;42.676;26.348;2022-08-19T06:19:07;98277.84;;;33.75;37.60
34566;BME280;20803;42.676;26.348;2022-08-19T06:21:34;98276.56;;;34.58;36.18
34566;BME280;20803;42.676;26.348;2022-08-19T06:24:02;98276.75;;;34.60;35.98
34566;BME280;20803;42.676;26.348;2022-08-19T06:26:29;98278.56;;;34.16;36.72
34566;BME280;20803;42.676;26.348;2022-08-19T06:28:54;98274.22;;;33.60;37.96
34566;BME280;20803;42.676;26.348;2022-08-19T06:31:25;98281.13;;;34.44;37.40
34566;BME280;20803;42.676;26.348;2022-08-19T06:33:51;98280.66;;;34.55;37.03
34566;BME280;20803;42.676;26.348;2022-08-19T06:38:49;98281.72;;;34.43;36.83
34566;BME280;20803;42.676;26.348;2022-08-19T06:41:15;98285.09;;;34.24;37.61
34566;BME280;20803;42.676;26.348;2022-08-19T06:43:40;98273.00;;;34.50;37.01
34566;BME280;20803;42.676;26.348;2022-08-19T06:46:15;98270.28;;;34.28;36.71
34566;BME280;20803;42.676;26.348;2022-08-19T06:48:41;98268.13;;;33.96;38.43
34566;BME280;20803;42.676;26.348;2022-08-19T06:51:07;98264.13;;;34.81;36.13
34566;BME280;20803;42.676;26.348;2022-08-19T06:53:32;98268.38;;;33.35;38.70
34566;BME280;20803;42.676;26.348;2022-08-19T06:55:58;98268.97;;;34.21;37.43
34566;BME280;20803;42.676;26.348;2022-08-19T06:58:29;98276.25;;;34.22;35.91
34566;BME280;20803;42.676;26.348;2022-08-19T07:00:59;98276.53;;;34.66;35.70
34566;BME280;20803;42.676;26.348;2022-08-19T07:03:25;98272.81;;;35.15;34.22
34566;BME280;20803;42.676;26.348;2022-08-19T07:05:51;98271.00;;;34.85;35.11
34566;BME280;20803;42.676;26.348;2022-08-19T07:08:17;98277.22;;;34.49;34.79
34566;BME280;20803;42.676;26.348;2022-08-19T07:10:44;98272.81;;;34.98;34.43
34566;BME280;20803;42.676;26.348;2022-08-19T07:13:10;98270.91;;;34.76;34.39
34566;BME280;20803;42.676;26.348;2022-08-19T07:15:36;98279.50;;;35.25;33.43
34566;BME280;20803;42.676;26.348;2022-08-19T07:18:03;98263.16;;;35.72;33.10
34566;BME280;20803;42.676;26.348;2022-08-19T07:20:28;98269.72;;;35.72;32.33
34566;BME280;20803;42.676;26.348;2022-08-19T07:22:54;98275.75;;;35.50;32.42
34566;BME280;20803;42.676;26.348;2022-08-19T07:25:19;98282.13;;;34.89;33.64
34566;BME280;20803;42.676;26.348;2022-08-19T07:27:48;98277.00;;;34.80;33.72
34566;BME280;20803;42.676;26.348;2022-08-19T07:30:14;98275.06;;;34.82;33.95
34566;BME280;20803;42.676;26.348;2022-08-19T07:32:40;98275.97;;;35.10;33.75
34566;BME280;20803;42.676;26.348;2022-08-19T07:35:06;98273.78;;;35.18;34.57
34566;BME280;20803;42.676;26.348;2022-08-19T07:37:32;98276.63;;;35.25;33.27
34566;BME280;20803;42.676;26.348;2022-08-19T07:39:57;98276.44;;;35.40;32.70
34566;BME280;20803;42.676;26.348;2022-08-19T07:42:23;98269.34;;;35.17;33.62
34566;BME280;20803;42.676;26.348;2022-08-19T07:44:48;98281.38;;;34.88;33.66
34566;BME280;20803;42.676;26.348;2022-08-19T07:47:13;98277.88;;;34.65;34.08
34566;BME280;20803;42.676;26.348;2022-08-19T07:49:40;98270.28;;;34.20;34.62
34566;BME280;20803;42.676;26.348;2022-08-19T07:52:08;98277.13;;;34.40;35.18
34566;BME280;20803;42.676;26.348;2022-08-19T07:54:37;98271.94;;;34.38;34.47
34566;BME280;20803;42.676;26.348;2022-08-19T07:57:04;98275.44;;;34.29;34.13
34566;BME280;20803;42.676;26.348;2022-08-19T07:59:29;98272.22;;;33.85;34.43
34566;BME280;20803;42.676;26.348;2022-08-19T08:01:55;98268.81;;;34.11;33.93
34566;BME280;20803;42.676;26.348;2022-08-19T08:04:21;98270.88;;;34.26;33.78
34566;BME280;20803;42.676;26.348;2022-08-19T08:07:06;98260.44;;;34.31;34.02
34566;BME280;20803;42.676;26.348;2022-08-19T08:09:51;98259.09;;;34.32;33.48
34566;BME280;20803;42.676;26.348;2022-08-19T08:12:20;98249.84;;;34.01;33.83
34566;BME280;20803;42.676;26.348;2022-08-19T08:14:51;98244.78;;;34.41;33.22
34566;BME280;20803;42.676;26.348;2022-08-19T08:17:19;98260.72;;;34.10;32.41
34566;BME280;20803;42.676;26.348;2022-08-19T08:19:45;98252.97;;;34.20;33.16
34566;BME280;20803;42.676;26.348;2022-08-19T08:22:14;98260.38;;;34.38;32.81
34566;BME280;20803;42.676;26.348;2022-08-19T08:25:15;98256.41;;;33.94;33.48
34566;BME280;20803;42.676;26.348;2022-08-19T08:27:43;98254.13;;;34.25;33.23
34566;BME280;20803;42.676;26.348;2022-08-19T08:30:10;98254.59;;;33.66;33.39
34566;BME280;20803;42.676;26.348;2022-08-19T08:32:37;98256.88;;;33.67;33.78
34566;BME280;20803;42.676;26.348;2022-08-19T08:35:07;98253.84;;;33.73;34.27
34566;BME280;20803;42.676;26.348;2022-08-19T08:37:33;98252.53;;;33.51;34.24
34566;BME280;20803;42.676;26.348;2022-08-19T08:39:59;98251.94;;;33.60;34.75
34566;BME280;20803;42.676;26.348;2022-08-19T08:42:36;98252.31;;;34.04;34.06
34566;BME280;20803;42.676;26.348;2022-08-19T08:45:11;98245.69;;;33.87;34.05
34566;BME280;20803;42.676;26.348;2022-08-19T08:47:42;98248.06;;;34.05;34.00
34566;BME280;20803;42.676;26.348;2022-08-19T08:50:12;98247.72;;;34.34;34.03
34566;BME280;20803;42.676;26.348;2022-08-19T08:52:44;98245.00;;;34.60;34.04
34566;BME280;20803;42.676;26.348;2022-08-19T08:55:18;98252.66;;;33.76;35.23
34566;BME280;20803;42.676;26.348;2022-08-19T09:00:18;98231.72;;;34.08;34.81
34566;BME280;20803;42.676;26.348;2022-08-19T09:02:44;98235.94;;;34.39;34.31
34566;BME280;20803;42.676;26.348;2022-08-19T09:05:11;98240.38;;;34.08;34.21
34566;BME280;20803;42.676;26.348;2022-08-19T09:11:06;98237.94;;;34.29;34.56
34566;BME280;20803;42.676;26.348;2022-08-19T09:13:34;98240.41;;;34.57;34.39
34566;BME280;20803;42.676;26.348;2022-08-19T09:16:11;98245.50;;;34.74;35.34
34566;BME280;20803;42.676;26.348;2022-08-19T09:21:05;98250.06;;;34.52;33.17
34566;BME280;20803;42.676;26.348;2022-08-19T09:23:30;98237.03;;;34.19;34.13
34566;BME280;20803;42.676;26.348;2022-08-19T09:25:56;98240.66;;;34.52;33.87
34566;BME280;20803;42.676;26.348;2022-08-19T09:28:21;98241.00;;;34.31;33.59
34566;BME280;20803;42.676;26.348;2022-08-19T09:30:46;98241.41;;;34.77;33.08
34566;BME280;20803;42.676;26.348;2022-08-19T09:33:12;98236.34;;;34.60;33.51
34566;BME280;20803;42.676;26.348;2022-08-19T09:35:37;98234.13;;;34.27;32.77
34566;BME280;20803;42.676;26.348;2022-08-19T09:38:03;98237.78;;;34.27;32.54
34566;BME280;20803;42.676;26.348;2022-08-19T09:40:29;98231.41;;;34.29;33.52
34566;BME280;20803;42.676;26.348;2022-08-19T09:42:55;98231.19;;;34.02;34.20
34566;BME280;20803;42.676;26.348;2022-08-19T09:45:22;98220.38;;;34.35;33.13
34566;BME280;20803;42.676;26.348;2022-08-19T09:47:51;98228.88;;;34.57;33.59
34566;BME280;20803;42.676;26.348;2022-08-19T09:50:18;98221.38;;;34.79;33.23
34566;BME280;20803;42.676;26.348;2022-08-19T09:52:44;98230.19;;;34.39;32.39
34566;BME280;20803;42.676;26.348;2022-08-19T09:55:10;98232.59;;;34.26;33.25
34566;BME280;20803;42.676;26.348;2022-08-19T09:57:36;98238.25;;;34.08;32.71
34566;BME280;20803;42.676;26.348;2022-08-19T10:00:04;98226.56;;;33.99;33.02
34566;BME280;20803;42.676;26.348;2022-08-19T10:02:30;98225.94;;;34.08;33.01
34566;BME280;20803;42.676;26.348;2022-08-19T10:04:56;98228.78;;;34.15;32.95
34566;BME280;20803;42.676;26.348;2022-08-19T10:07:40;98227.41;;;34.16;32.60
34566;BME280;20803;42.676;26.348;2022-08-19T10:10:06;98238.53;;;33.48;33.84
34566;BME280;20803;42.676;26.348;2022-08-19T10:12:33;98244.03;;;33.61;33.66
34566;BME280;20803;42.676;26.348;2022-08-19T10:14:59;98234.84;;;34.02;32.86
34566;BME280;20803;42.676;26.348;2022-08-19T10:17:26;98226.50;;;34.14;32.93
34566;BME280;20803;42.676;26.348;2022-08-19T10:19:51;98225.03;;;34.55;32.27
34566;BME280;20803;42.676;26.348;2022-08-19T10:22:18;98221.53;;;34.39;32.63
34566;BME280;20803;42.676;26.348;2022-08-19T10:24:45;98227.41;;;34.16;33.45
34566;BME280;20803;42.676;26.348;2022-08-19T10:27:10;98221.63;;;33.92;33.69
34566;BME280;20803;42.676;26.348;2022-08-19T10:29:37;98225.44;;;33.94;32.78
34566;BME280;20803;42.676;26.348;2022-08-19T10:32:05;98215.47;;;34.20;32.64
34566;BME280;20803;42.676;26.348;2022-08-19T10:34:33;98209.00;;;34.61;33.06
34566;BME280;20803;42.676;26.348;2022-08-19T10:36:59;98220.50;;;34.69;33.28
34566;BME280;20803;42.676;26.348;2022-08-19T10:39:30;98219.69;;;34.51;33.50
34566;BME280;20803;42.676;26.348;2022-08-19T10:41:56;98209.44;;;34.58;32.44
34566;BME280;20803;42.676;26.348;2022-08-19T10:44:22;98224.84;;;34.03;33.34
34566;BME280;20803;42.676;26.348;2022-08-19T10:46:49;98216.00;;;34.34;33.42
34566;BME280;20803;42.676;26.348;2022-08-19T10:49:14;98220.34;;;34.42;33.40
34566;BME280;20803;42.676;26.348;2022-08-19T10:51:40;98217.47;;;34.59;33.00
34566;BME280;20803;42.676;26.348;2022-08-19T10:54:25;98226.06;;;34.75;31.18
34566;BME280;20803;42.676;26.348;2022-08-19T10:57:10;98212.00;;;33.97;32.63
34566;BME280;20803;42.676;26.348;2022-08-19T10:59:36;98198.16;;;34.20;33.41
34566;BME280;20803;42.676;26.348;2022-08-19T11:02:04;98206.06;;;34.19;33.33
34566;BME280;20803;42.676;26.348;2022-08-19T11:04:30;98204.03;;;34.37;32.72
34566;BME280;20803;42.676;26.348;2022-08-19T11:06:57;98212.22;;;34.16;33.11
34566;BME280;20803;42.676;26.348;2022-08-19T11:09:24;98214.56;;;34.10;33.21
34566;BME280;20803;42.676;26.348;2022-08-19T11:11:51;98203.41;;;34.14;32.66
34566;BME280;20803;42.676;26.348;2022-08-19T11:14:18;98202.91;;;34.33;33.49
34566;BME280;20803;42.676;26.348;2022-08-19T11:16:46;98194.13;;;34.90;32.65
34566;BME280;20803;42.676;26.348;2022-08-19T11:19:11;98198.22;;;35.04;31.83
34566;BME280;20803;42.676;26.348;2022-08-19T11:21:43;98196.59;;;34.93;32.12
34566;BME280;20803;42.676;26.348;2022-08-19T11:24:12;98190.81;;;34.76;32.77
34566;BME280;20803;42.676;26.348;2022-08-19T11:26:40;98196.22;;;34.72;32.34
34566;BME280;20803;42.676;26.348;2022-08-19T11:29:07;98194.63;;;34.54;33.29
34566;BME280;20803;42.676;26.348;2022-08-19T11:31:37;98190.59;;;34.32;33.58
34566;BME280;20803;42.676;26.348;2022-08-19T11:34:06;98188.06;;;34.36;33.59
34566;BME280;20803;42.676;26.348;2022-08-19T11:36:32;98191.88;;;34.64;33.55
34566;BME280;20803;42.676;26.348;2022-08-19T11:38:58;98184.88;;;34.91;32.25
34566;BME280;20803;42.676;26.348;2022-08-19T11:41:24;98182.00;;;34.67;32.79
34566;BME280;20803;42.676;26.348;2022-08-19T11:43:51;98187.25;;;34.11;33.38
34566;BME280;20803;42.676;26.348;2022-08-19T11:46:17;98191.13;;;33.81;34.21
34566;BME280;20803;42.676;26.348;2022-08-19T11:48:43;98175.47;;;33.59;34.87
34566;BME280;20803;42.676;26.348;2022-08-19T11:51:17;98175.38;;;33.42;35.13
34566;BME280;20803;42.676;26.348;2022-08-19T11:53:44;98179.19;;;33.45;35.14
34566;BME280;20803;42.676;26.348;2022-08-19T11:56:10;98181.44;;;33.54;34.65
34566;BME280;20803;42.676;26.348;2022-08-19T11:58:36;98176.59;;;33.71;34.06
34566;BME280;20803;42.676;26.348;2022-08-19T12:01:06;98173.44;;;34.09;34.01
34566;BME280;20803;42.676;26.348;2022-08-19T12:03:32;98177.94;;;34.28;32.84
34566;BME280;20803;42.676;26.348;2022-08-19T12:05:58;98160.75;;;34.37;33.38
34566;BME280;20803;42.676;26.348;2022-08-19T12:08:27;98152.09;;;34.54;32.90
34566;BME280;20803;42.676;26.348;2022-08-19T12:10:53;98162.50;;;34.33;32.90
34566;BME280;20803;42.676;26.348;2022-08-19T12:13:18;98168.03;;;34.38;33.50
34566;BME280;20803;42.676;26.348;2022-08-19T12:15:46;98163.69;;;34.30;33.73
34566;BME280;20803;42.676;26.348;2022-08-19T12:18:12;98156.47;;;33.89;34.12
34566;BME280;20803;42.676;26.348;2022-08-19T12:20:40;98159.09;;;33.62;34.38
34566;BME280;20803;42.676;26.348;2022-08-19T12:23:08;98163.53;;;33.63;35.07
34566;BME280;20803;42.676;26.348;2022-08-19T12:25:42;98160.16;;;33.81;35.08
34566;BME280;20803;42.676;26.348;2022-08-19T12:28:20;98155.09;;;33.97;34.74
34566;BME280;20803;42.676;26.348;2022-08-19T12:30:47;98153.84;;;34.33;34.26
34566;BME280;20803;42.676;26.348;2022-08-19T12:33:12;98152.84;;;34.13;34.35
34566;BME280;20803;42.676;26.348;2022-08-19T12:35:40;98160.44;;;34.68;33.74
34566;BME280;20803;42.676;26.348;2022-08-19T12:38:06;98153.13;;;34.67;32.91
34566;BME280;20803;42.676;26.348;2022-08-19T12:40:31;98148.44;;;34.37;33.71
34566;BME280;20803;42.676;26.348;2022-08-19T12:42:57;98153.88;;;34.50;34.26
34566;BME280;20803;42.676;26.348;2022-08-19T12:45:22;98151.47;;;34.98;33.72
34566;BME280;20803;42.676;26.348;2022-08-19T12:47:48;98153.00;;;35.33;32.74
34566;BME280;20803;42.676;26.348;2022-08-19T12:50:13;98142.03;;;35.32;32.78
34566;BME280;20803;42.676;26.348;2022-08-19T12:52:38;98156.09;;;35.01;33.37
34566;BME280;20803;42.676;26.348;2022-08-19T12:55:08;98139.09;;;34.88;33.69
34566;BME280;20803;42.676;26.348;2022-08-19T12:57:34;98144.13;;;34.45;33.65
34566;BME280;20803;42.676;26.348;2022-08-19T13:00:07;98151.72;;;34.08;34.08
34566;BME280;20803;42.676;26.348;2022-08-19T13:02:36;98143.06;;;34.08;34.30
34566;BME280;20803;42.676;26.348;2022-08-19T13:05:03;98143.34;;;34.20;33.43
34566;BME280;20803;42.676;26.348;2022-08-19T13:07:28;98141.44;;;34.22;34.25